createdAt,value
2023-09-02T00:12:35.616Z,25.44
2023-09-02T00:42:36.132Z,25.22
2023-09-02T01:05:29.468Z,25.09
2023-09-02T01:42:44.853Z,24.94
2023-09-02T02:02:39.627Z,24.89
2023-09-02T02:12:27.121Z,24.84
2023-09-02T02:22:40.537Z,24.79
2023-09-02T03:42:39.737Z,24.73
2023-09-02T04:02:24.687Z,24.83
2023-09-02T04:07:28.168Z,24.88
2023-09-02T04:12:30.353Z,24.91
2023-09-02T08:07:22.554Z,27.21
2023-09-02T08:12:29.369Z,27.36
2023-09-02T12:32:35.449Z,26.54
2023-09-02T15:12:45.470Z,26.02
2023-09-02T15:32:24.772Z,25.89
2023-09-02T15:41:19.956Z,25.79
2023-09-02T15:49:28.644Z,25.81
2023-09-02T15:54:31.101Z,25.81
2023-09-02T15:59:33.211Z,25.79
2023-09-02T16:04:38.683Z,25.77
2023-09-02T16:09:40.894Z,25.80
2023-09-02T16:14:43.082Z,25.84
2023-09-02T16:19:45.495Z,25.84
2023-09-02T16:24:49.050Z,25.80
2023-09-02T16:29:53.747Z,25.78
2023-09-02T16:34:55.929Z,25.79
2023-09-02T16:40:00.408Z,25.78
2023-09-02T16:45:12.014Z,25.71
2023-09-02T16:50:17.127Z,25.61
2023-09-02T16:55:26.355Z,25.57
2023-09-02T17:00:35.354Z,25.54
2023-09-02T17:05:50.674Z,25.56
2023-09-02T17:10:58.600Z,25.54
2023-09-02T17:16:01.348Z,25.50
2023-09-02T17:21:21.194Z,25.52
2023-09-02T17:26:24.877Z,25.51
2023-09-02T17:31:32.655Z,25.49
2023-09-02T17:36:36.048Z,25.46
2023-09-02T17:47:34.886Z,25.41
2023-09-02T17:52:45.856Z,25.39
2023-09-02T17:58:04.472Z,25.37
2023-09-02T18:03:28.573Z,25.32
2023-09-02T18:08:57.414Z,25.29
2023-09-02T18:14:02.301Z,25.28
2023-09-02T18:19:11.092Z,25.25
2023-09-02T18:24:17.212Z,25.24
2023-09-02T18:29:22.071Z,25.27
2023-09-02T18:34:25.946Z,25.23
2023-09-02T18:39:40.210Z,25.21
2023-09-02T18:44:51.049Z,25.20
2023-09-02T18:50:02.038Z,25.18
2023-09-02T18:55:13.598Z,25.18
2023-09-02T19:00:18.741Z,25.19
2023-09-02T19:05:35.145Z,25.17
2023-09-02T19:10:44.139Z,25.19
2023-09-02T19:15:48.383Z,25.17
2023-09-02T19:21:01.117Z,25.10
2023-09-02T19:26:05.617Z,25.05
2023-09-02T19:31:11.428Z,25.04
2023-09-02T19:36:15.912Z,25.00
2023-09-02T19:41:36.993Z,24.96
2023-09-02T19:46:41.327Z,24.94
2023-09-02T19:51:50.760Z,24.94
2023-09-02T19:56:57.875Z,25.06
2023-09-02T20:02:05.506Z,25.15
2023-09-02T20:07:14.578Z,25.21
2023-09-02T20:12:22.620Z,25.18
2023-09-02T20:17:27.284Z,25.07
2023-09-02T20:28:09.139Z,24.97
2023-09-02T20:33:22.477Z,24.97
2023-09-02T20:38:29.589Z,25.00
2023-09-02T20:43:37.144Z,25.01
2023-09-02T20:48:41.363Z,25.01
2023-09-02T20:53:48.375Z,24.95
2023-09-02T20:58:57.895Z,24.90
2023-09-02T21:04:03.452Z,24.92
2023-09-02T21:09:09.518Z,24.94
2023-09-02T21:14:13.136Z,24.96
2023-09-02T21:19:18.801Z,24.93
2023-09-02T21:24:30.952Z,24.92
2023-09-02T21:29:45.099Z,24.88
2023-09-02T21:34:50.142Z,24.85
2023-09-02T21:39:54.064Z,24.81
2023-09-02T21:45:01.348Z,24.78
2023-09-02T21:50:06.705Z,24.78
2023-09-02T21:55:15.274Z,24.76
2023-09-02T22:00:23.155Z,24.81
2023-09-02T22:05:31.740Z,24.83
2023-09-02T22:10:44.046Z,24.81
2023-09-02T22:15:50.515Z,24.82
2023-09-02T22:20:57.259Z,24.85
2023-09-02T22:26:07.706Z,24.88
2023-09-02T22:31:13.578Z,24.91
2023-09-02T22:41:41.306Z,24.89
2023-09-02T22:46:49.197Z,24.88
2023-09-02T22:51:54.433Z,24.90
2023-09-02T22:57:01.859Z,24.89
2023-09-02T23:02:11.174Z,24.89
2023-09-02T23:07:17.112Z,24.91
2023-09-02T23:12:24.593Z,24.88
2023-09-02T23:17:31.284Z,24.87
2023-09-02T23:22:39.570Z,24.83
2023-09-02T23:27:52.093Z,24.83
2023-09-02T23:32:56.152Z,24.79
2023-09-02T23:38:08.232Z,24.76
2023-09-02T23:43:15.430Z,24.78
2023-09-02T23:48:21.615Z,24.80
2023-09-02T23:53:27.570Z,24.77
2023-09-02T23:58:33.334Z,24.76
